Time;durP1;ratioP1;P1;durP2;ratioP2;P2;SDS_P1;SDS_P2;PMS_P1;PMS_P2;Temp;Humidity;BMP_temperature;BMP_pressure;BME280_temperature;BME280_humidity;BME280_pressure;Samples;Min_cycle;Max_cycle;Signal;HPM_P1;HPM_P2
2023/10/17 00:02:06;;;;;;;4.18;1.33;;;;;;;10.23;85.94;97875.88;5009517;28;20064;-75
2023/10/17 00:04:33;;;;;;;3.65;1.55;;;;;;;10.16;86.19;97879.53;5052821;28;20416;-77
2023/10/17 00:07:02;;;;;;;2.95;1.38;;;;;;;10.13;85.89;97871.97;5019533;28;20049;-77
2023/10/17 00:09:30;;;;;;;4.88;1.30;;;;;;;10.16;86.44;97875.00;5036756;28;20079;-77
2023/10/17 00:12:09;;;;;;;6.22;1.70;;;;;;;10.19;86.43;97873.81;5019688;28;20095;-77
2023/10/17 00:14:44;;;;;;;3.55;1.52;;;;;;;10.06;86.86;97866.59;5021069;28;20037;-77
2023/10/17 00:17:13;;;;;;;3.35;1.70;;;;;;;10.04;86.21;97871.25;5003885;28;20049;-77
2023/10/17 00:19:41;;;;;;;2.00;1.55;;;;;;;9.97;86.75;97875.72;5036760;28;20080;-76
2023/10/17 00:22:09;;;;;;;4.32;1.40;;;;;;;9.98;86.24;97880.00;5036030;28;20509;-74
2023/10/17 00:24:35;;;;;;;5.63;1.70;;;;;;;9.92;86.39;97877.31;5036061;28;20041;-74
2023/10/17 00:27:03;;;;;;;2.78;1.80;;;;;;;9.87;87.03;97875.25;5003289;28;20044;-76
2023/10/17 00:29:31;;;;;;;4.40;1.90;;;;;;;9.88;86.59;97879.56;5052572;28;20049;-75
2023/10/17 00:31:56;;;;;;;8.25;1.60;;;;;;;9.67;87.02;97873.53;5035551;28;20044;-76
2023/10/17 00:34:24;;;;;;;2.22;1.83;;;;;;;9.64;87.10;97884.53;5019074;28;20045;-75
2023/10/17 00:36:51;;;;;;;5.00;2.05;;;;;;;9.58;87.86;97874.69;5035903;28;20062;-77
2023/10/17 00:39:29;;;;;;;6.07;1.80;;;;;;;9.82;87.00;97877.69;5020002;28;20036;-78
2023/10/17 00:44:33;;;;;;;4.38;2.05;;;;;;;9.69;86.68;97890.88;5036504;28;20095;-78
2023/10/17 00:47:00;;;;;;;6.53;2.15;;;;;;;9.71;87.40;97891.50;5018819;28;20143;-77
2023/10/17 00:49:33;;;;;;;6.47;1.90;;;;;;;9.60;87.63;97884.09;5035450;28;20422;-77
2023/10/17 00:52:03;;;;;;;3.88;2.22;;;;;;;9.68;87.87;97878.63;5019591;28;20045;-77
2023/10/17 00:54:35;;;;;;;5.35;1.70;;;;;;;9.68;88.00;97872.50;5057638;28;20055;-77
2023/10/17 00:57:05;;;;;;;6.80;2.30;;;;;;;9.53;87.84;97877.91;5040356;28;20076;-77
2023/10/17 00:59:32;;;;;;;6.50;2.50;;;;;;;9.49;87.72;97881.97;5019954;28;20044;-76
2023/10/17 01:02:07;;;;;;;4.75;2.33;;;;;;;9.62;87.69;97882.06;5023752;28;20052;-76
2023/10/17 01:04:44;;;;;;;4.22;2.15;;;;;;;9.58;87.49;97883.44;5031881;28;20523;-76
2023/10/17 01:07:12;;;;;;;9.43;2.40;;;;;;;9.41;88.00;97889.25;5019123;28;20888;-77
2023/10/17 01:09:38;;;;;;;2.97;1.98;;;;;;;9.31;87.77;97894.06;5035727;28;20053;-76
2023/10/17 01:12:11;;;;;;;4.63;2.10;;;;;;;9.29;88.28;97890.78;5002421;28;20041;-76
2023/10/17 01:14:38;;;;;;;6.28;1.88;;;;;;;9.26;88.21;97891.97;5019138;28;20084;-77
2023/10/17 01:17:15;;;;;;;5.40;2.13;;;;;;;9.15;87.78;97883.75;5035091;28;20040;-77
2023/10/17 01:19:42;;;;;;;7.28;2.15;;;;;;;9.13;87.90;97891.91;5020226;28;20159;-76
2023/10/17 01:22:08;;;;;;;3.10;1.80;;;;;;;9.08;88.01;97891.63;5051424;28;20053;-77
2023/10/17 01:24:35;;;;;;;3.70;1.90;;;;;;;9.11;87.97;97901.03;5018206;28;20139;-76
2023/10/17 01:27:06;;;;;;;2.88;2.20;;;;;;;8.99;87.62;97894.59;5051131;28;20051;-76
2023/10/17 01:29:32;;;;;;;8.23;1.90;;;;;;;8.97;87.93;97894.78;5034415;28;20057;-76
2023/10/17 01:31:59;;;;;;;3.35;1.90;;;;;;;8.92;88.11;97893.75;5034890;28;20060;-75
2023/10/17 01:34:27;;;;;;;2.85;1.95;;;;;;;8.90;88.24;97896.56;5050947;28;20059;-75
2023/10/17 01:36:55;;;;;;;4.07;1.90;;;;;;;8.88;88.30;97898.59;5001647;28;20037;-75
2023/10/17 01:39:22;;;;;;;6.95;2.20;;;;;;;8.87;88.93;97909.38;5018521;28;20394;-75
2023/10/17 01:41:50;;;;;;;2.50;1.77;;;;;;;8.87;89.27;97906.72;5017958;28;20041;-76
2023/10/17 01:44:16;;;;;;;7.47;2.10;;;;;;;8.83;89.05;97914.22;5035145;28;20356;-76
2023/10/17 01:46:43;;;;;;;3.90;1.80;;;;;;;8.80;89.88;97909.28;5034066;28;20360;-76
2023/10/17 01:49:13;;;;;;;4.65;2.22;;;;;;;8.81;89.62;97913.56;5018250;28;20052;-76
2023/10/17 01:51:48;;;;;;;6.22;1.90;;;;;;;8.79;90.33;97905.00;5034644;28;20045;-76
2023/10/17 01:54:16;;;;;;;4.57;1.70;;;;;;;8.75;89.76;97909.03;5018983;28;20461;-76
2023/10/17 01:56:49;;;;;;;6.20;2.00;;;;;;;8.74;90.27;97896.81;5034381;28;20048;-75
2023/10/17 01:59:25;;;;;;;3.72;1.60;;;;;;;8.68;90.40;97902.88;5018427;28;20040;-75
2023/10/17 02:01:56;;;;;;;5.88;1.80;;;;;;;8.72;90.68;97909.41;5019603;28;20498;-75
2023/10/17 02:04:24;;;;;;;3.80;1.42;;;;;;;8.66;90.74;97907.50;5035027;28;20136;-76
2023/10/17 02:06:50;;;;;;;4.32;1.55;;;;;;;8.63;90.97;97905.25;5034340;28;20174;-76
2023/10/17 02:11:54;;;;;;;1.92;1.35;;;;;;;8.55;91.09;97900.06;5051233;28;20037;-75
2023/10/17 02:14:21;;;;;;;4.28;1.50;;;;;;;8.58;91.26;97900.53;5018499;28;20041;-76
2023/10/17 02:16:48;;;;;;;3.70;1.45;;;;;;;8.52;91.21;97903.09;5033788;28;20131;-76
2023/10/17 02:19:15;;;;;;;1.92;1.40;;;;;;;8.50;91.33;97903.28;5017418;28;20045;-76
2023/10/17 02:22:02;;;;;;;3.78;1.55;;;;;;;8.44;91.97;97900.59;5023230;28;20443;-77
2023/10/17 02:24:32;;;;;;;2.60;1.50;;;;;;;8.41;92.03;97907.03;5018055;28;20368;-77
2023/10/17 02:27:06;;;;;;;4.05;1.48;;;;;;;8.47;92.28;97900.22;5034588;28;20048;-77
2023/10/17 02:29:38;;;;;;;5.15;1.48;;;;;;;8.40;92.18;97894.00;5019953;28;20503;-77
2023/10/17 02:32:11;;;;;;;5.55;1.30;;;;;;;8.42;91.95;97895.47;5034465;28;20517;-76
2023/10/17 02:34:38;;;;;;;4.05;1.50;;;;;;;8.35;92.09;97891.91;5018133;28;20128;-76
2023/10/17 02:37:10;;;;;;;6.72;1.60;;;;;;;8.42;92.61;97890.19;4998882;28;20126;-76
2023/10/17 02:39:37;;;;;;;3.38;1.60;;;;;;;8.44;92.32;97890.00;5001199;28;20048;-77
2023/10/17 02:42:08;;;;;;;7.32;1.80;;;;;;;8.46;92.66;97893.25;5000627;28;20043;-76
2023/10/17 02:44:39;;;;;;;4.10;1.50;;;;;;;8.55;92.58;97892.13;5049970;28;20076;-76
2023/10/17 02:47:11;;;;;;;3.00;1.50;;;;;;;8.46;92.81;97904.66;5049975;28;20072;-76
2023/10/17 02:49:37;;;;;;;;;;;;;;;8.62;92.64;97902.78;5000477;28;20045;-75
2023/10/17 02:52:05;;;;;;;2.30;1.42;;;;;;;8.37;92.46;97897.03;5049912;28;20034;-74
2023/10/17 02:54:42;;;;;;;7.88;1.90;;;;;;;8.26;92.93;97905.44;5016887;28;20447;-76
2023/10/17 02:57:09;;;;;;;3.40;1.45;;;;;;;8.17;93.13;97903.88;5050991;28;20060;-77
2023/10/17 02:59:35;;;;;;;2.60;1.30;;;;;;;8.13;92.96;97899.97;5033291;28;20055;-77
2023/10/17 03:02:05;;;;;;;3.58;1.55;;;;;;;7.98;93.17;97902.63;5016726;28;20049;-74
2023/10/17 03:04:31;;;;;;;7.93;1.63;;;;;;;7.92;93.50;97906.00;5050040;28;20119;-73
2023/10/17 03:07:00;;;;;;;5.32;1.60;;;;;;;7.85;93.89;97905.09;5017070;28;20138;-73
2023/10/17 03:14:25;;;;;;;3.60;1.55;;;;;;;7.84;95.30;97907.94;5034180;28;20053;-75
2023/10/17 03:16:52;;;;;;;5.63;1.75;;;;;;;7.76;95.35;97911.47;5016899;28;20334;-74
2023/10/17 03:19:27;;;;;;;7.40;1.90;;;;;;;7.88;95.35;97909.19;5033273;28;20055;-74
2023/10/17 03:21:58;;;;;;;5.88;1.70;;;;;;;7.88;95.30;97909.19;5033374;28;20387;-74
2023/10/17 03:24:38;;;;;;;4.82;1.60;;;;;;;7.73;95.63;97908.38;5000528;28;20478;-73
2023/10/17 03:27:07;;;;;;;4.43;1.73;;;;;;;7.74;95.69;97910.00;5049459;28;20091;-74
2023/10/17 03:29:36;;;;;;;3.17;1.63;;;;;;;7.69;95.25;97909.72;5016779;28;20036;-75
2023/10/17 03:32:05;;;;;;;4.65;1.73;;;;;;;7.76;95.62;97900.09;5019755;28;20462;-76
2023/10/17 03:34:35;;;;;;;5.70;1.98;;;;;;;7.72;95.41;97912.03;5036467;28;20051;-75
2023/10/17 03:39:55;;;;;;;11.10;1.88;;;;;;;7.58;95.23;97910.19;5039145;28;20136;-75
2023/10/17 03:45:13;;;;;;;3.30;2.00;;;;;;;7.36;96.13;97914.53;5037730;28;20131;-74
2023/10/17 03:47:40;;;;;;;6.53;1.80;;;;;;;7.16;97.02;97921.31;5020205;28;20470;-73
2023/10/17 03:50:09;;;;;;;4.57;1.88;;;;;;;7.16;98.06;97916.03;5020096;28;20048;-74
2023/10/17 03:52:36;;;;;;;8.65;1.80;;;;;;;7.07;97.96;97925.03;5036326;28;20132;-74
2023/10/17 03:55:02;;;;;;;3.35;1.70;;;;;;;7.23;97.97;97922.25;5003684;28;20052;-75
2023/10/17 03:57:31;;;;;;;3.55;1.70;;;;;;;7.09;97.54;97924.84;5020710;28;20521;-74
2023/10/17 03:59:57;;;;;;;6.32;2.00;;;;;;;7.09;97.77;97920.38;5037296;28;20049;-74
2023/10/17 04:02:24;;;;;;;6.60;1.52;;;;;;;6.85;98.34;97929.31;5020030;28;20175;-74
2023/10/17 04:04:54;;;;;;;4.65;1.63;;;;;;;6.81;98.97;97925.38;5019795;28;20052;-74
2023/10/17 04:07:26;;;;;;;8.35;1.85;;;;;;;6.81;99.83;97935.13;5019400;28;20087;-74
2023/10/17 04:09:53;;;;;;;3.20;1.60;;;;;;;6.70;100.00;97928.41;5035960;28;20045;-74
2023/10/17 04:12:37;;;;;;;2.65;1.50;;;;;;;6.72;100.00;97941.44;5003280;28;20040;-72
2023/10/17 04:15:06;;;;;;;6.72;1.90;;;;;;;6.82;100.00;97942.03;5020063;28;20084;-73
2023/10/17 04:17:36;;;;;;;4.80;2.00;;;;;;;6.73;100.00;97943.91;5020105;28;20487;-73
2023/10/17 04:20:11;;;;;;;3.78;1.85;;;;;;;6.87;100.00;97945.78;5036192;28;20056;-75
2023/10/17 04:22:43;;;;;;;2.75;1.98;;;;;;;6.85;100.00;97950.44;5005473;28;20052;-75
2023/10/17 04:27:54;;;;;;;3.53;2.13;;;;;;;6.66;100.00;97952.69;5053184;28;20119;-75
2023/10/17 04:30:35;;;;;;;5.05;1.77;;;;;;;6.72;100.00;97962.53;5052441;28;20067;-74
2023/10/17 04:33:12;;;;;;;3.50;1.95;;;;;;;6.69;100.00;97969.00;5044388;28;20049;-75
2023/10/17 04:35:48;;;;;;;4.63;2.00;;;;;;;6.69;100.00;97961.06;5054563;28;20483;-76
2023/10/17 04:38:26;;;;;;;5.17;1.90;;;;;;;6.71;100.00;97969.66;5036278;28;20041;-74
2023/10/17 04:41:17;;;;;;;3.33;2.07;;;;;;;6.86;100.00;97980.25;5052149;28;20114;-73
2023/10/17 04:43:45;;;;;;;;;;;;;;;7.03;100.00;97976.50;5022478;28;20475;-72
2023/10/17 04:46:11;;;;;;;8.10;1.63;;;;;;;6.76;100.00;97969.94;5035389;28;19920;-75
2023/10/17 04:48:40;;;;;;;3.30;2.00;;;;;;;6.72;100.00;97981.84;5019019;28;20434;-70
2023/10/17 04:53:48;;;;;;;4.87;1.67;;;;;;;6.81;99.68;97991.34;5037526;28;20107;-72
2023/10/17 04:56:22;;;;;;;6.22;1.77;;;;;;;6.81;99.92;97983.41;5021289;28;20091;-71
2023/10/17 04:58:56;;;;;;;6.15;2.05;;;;;;;6.90;100.00;98000.03;5034810;28;20483;-71
2023/10/17 05:04:13;;;;;;;3.70;1.80;;;;;;;6.90;99.76;98003.47;4961537;28;20061;-73
2023/10/17 06:17:55;;;;;;;2.97;1.67;;;;;;;8.74;86.46;98065.38;5002422;28;20040;-73
2023/10/17 06:21:06;;;;;;;3.33;1.50;;;;;;;8.67;86.40;98075.88;5007152;28;20051;-72
2023/10/17 06:24:06;;;;;;;2.20;1.30;;;;;;;8.66;86.27;98074.22;5024214;28;20032;-75
2023/10/17 06:34:17;;;;;;;2.92;1.30;;;;;;;8.64;87.10;98070.13;5048882;28;20049;-77
2023/10/17 06:36:44;;;;;;;8.45;1.52;;;;;;;8.68;87.24;98069.59;5034219;28;20138;-75
2023/10/17 06:39:19;;;;;;;3.60;1.40;;;;;;;8.57;87.32;98081.47;5042893;28;20178;-75
2023/10/17 06:41:46;;;;;;;2.65;1.42;;;;;;;8.57;87.03;98072.69;5021627;28;20041;-72
2023/10/17 06:44:21;;;;;;;3.67;1.40;;;;;;;8.55;87.53;98077.31;5052312;28;20037;-75
2023/10/17 06:52:19;;;;;;;2.45;1.20;;;;;;;8.65;87.50;98080.53;5045087;28;20048;-71
2023/10/17 06:54:58;;;;;;;2.90;1.50;;;;;;;8.69;86.50;98081.81;5024618;28;20083;-74
2023/10/17 06:57:33;;;;;;;3.17;1.30;;;;;;;8.53;86.66;98082.00;5021479;28;20048;-71
2023/10/17 07:02:48;;;;;;;3.10;1.40;;;;;;;8.53;86.54;98088.09;5055911;28;20048;-68
2023/10/17 07:05:14;;;;;;;1.55;1.10;;;;;;;8.59;86.66;98091.84;5016661;28;20036;-73
2023/10/17 07:07:41;;;;;;;5.30;1.40;;;;;;;8.52;86.64;98088.28;5048399;28;20148;-73
2023/10/17 07:10:24;;;;;;;1.63;1.15;;;;;;;8.68;86.20;98093.41;5076750;28;20033;-71
2023/10/17 07:13:28;;;;;;;1.30;1.13;;;;;;;8.94;85.74;98099.03;5046787;28;20463;-75
2023/10/17 07:15:54;;;;;;;2.35;1.20;;;;;;;8.66;84.90;98092.75;5051967;28;20056;-74
2023/10/17 07:21:24;;;;;;;4.68;1.50;;;;;;;8.69;85.00;98104.81;4975700;28;20094;-76
2023/10/17 07:23:55;;;;;;;2.30;0.98;;;;;;;8.82;85.76;98097.88;4975959;28;20066;-72
2023/10/17 07:28:57;;;;;;;3.70;1.30;;;;;;;8.77;85.51;98102.06;4992370;28;20091;-74
2023/10/17 07:31:23;;;;;;;1.48;1.38;;;;;;;8.68;85.10;98106.63;5012972;28;20071;-75
2023/10/17 07:34:35;;;;;;;1.73;1.08;;;;;;;8.69;85.37;98104.81;5019310;28;20041;-73
2023/10/17 07:36:39;;;;;;;3.13;2.05;;;;;;;8.77;85.30;98102.88;5043052;28;20064;-73
2023/10/17 07:39:16;;;;;;;2.03;1.30;;;;;;;8.91;85.32;98111.81;5020225;28;20037;-75
2023/10/17 07:41:52;;;;;;;6.50;1.10;;;;;;;8.78;84.92;98104.50;5035779;28;20486;-73
2023/10/17 07:44:19;;;;;;;2.72;1.30;;;;;;;8.83;85.11;98122.47;5051504;28;20039;-74
2023/10/17 07:49:41;;;;;;;1.63;1.27;;;;;;;8.91;84.97;98119.75;5032463;28;20106;-74
2023/10/17 07:52:12;;;;;;;3.45;1.25;;;;;;;8.98;84.89;98126.75;5051352;28;20123;-74
2023/10/17 07:54:45;;;;;;;1.65;1.15;;;;;;;8.86;84.54;98122.94;5052309;28;20194;-75
2023/10/17 07:57:26;;;;;;;4.18;1.30;;;;;;;9.04;84.38;98130.53;5052921;28;20041;-78
2023/10/17 07:59:52;;;;;;;2.15;1.00;;;;;;;9.00;84.43;98140.66;5053817;28;20049;-77
2023/10/17 08:02:20;;;;;;;1.73;1.05;;;;;;;8.99;85.30;98135.53;5035270;28;20137;-75
2023/10/17 08:04:48;;;;;;;3.08;1.35;;;;;;;8.95;85.31;98135.09;5065967;28;20041;-77
2023/10/17 08:07:20;;;;;;;4.40;1.58;;;;;;;9.02;85.30;98148.41;5059581;28;20103;-74
2023/10/17 08:09:56;;;;;;;3.05;1.42;;;;;;;9.03;85.38;98161.47;5053137;28;20053;-79
2023/10/17 08:12:29;;;;;;;3.30;1.33;;;;;;;9.08;84.07;98156.44;5023849;28;20381;-80
2023/10/17 08:14:58;;;;;;;4.80;1.48;;;;;;;8.97;83.96;98162.19;5052098;28;20040;-81
2023/10/17 08:17:27;;;;;;;6.57;1.33;;;;;;;9.00;83.14;98155.72;5020418;28;20052;-80
2023/10/17 08:22:55;;;;;;;2.08;1.00;;;;;;;9.10;81.81;98166.84;5051085;28;20494;-77
2023/10/17 08:25:32;;;;;;;3.47;1.00;;;;;;;8.93;80.78;98174.19;5052387;28;20045;-78
2023/10/17 08:27:58;;;;;;;5.55;1.30;;;;;;;8.97;80.38;98159.56;5070549;28;20395;-77
2023/10/17 08:30:25;;;;;;;5.18;1.10;;;;;;;8.97;80.02;98156.91;5051830;28;20036;-79
2023/10/17 08:35:51;;;;;;;1.85;1.10;;;;;;;8.96;80.07;98162.38;5051994;28;20045;-74
2023/10/17 08:38:17;;;;;;;2.33;0.90;;;;;;;8.93;79.51;98168.88;5034465;28;20384;-72
2023/10/17 08:40:49;;;;;;;2.58;1.15;;;;;;;8.98;79.39;98168.31;5034832;28;20045;-79
2023/10/17 08:43:17;;;;;;;1.17;1.00;;;;;;;8.92;79.03;98169.88;5065889;28;20087;-75
2023/10/17 08:45:47;;;;;;;4.05;1.10;;;;;;;9.14;79.13;98163.66;5051536;28;20095;-76
2023/10/17 08:48:14;;;;;;;5.85;1.27;;;;;;;9.05;78.59;98167.41;5053301;28;20123;-77
2023/10/17 08:50:39;;;;;;;0.95;0.88;;;;;;;9.12;77.71;98176.25;5035065;28;20083;-78
2023/10/17 08:53:09;;;;;;;1.35;1.10;;;;;;;9.42;78.77;98169.06;5015041;28;20072;-79
2023/10/17 08:55:39;;;;;;;1.80;1.10;;;;;;;9.38;77.48;98171.28;5031324;28;20042;-78
2023/10/17 08:58:09;;;;;;;2.00;1.00;;;;;;;10.07;77.24;98175.91;5030857;28;20056;-79
2023/10/17 09:03:23;;;;;;;1.25;0.90;;;;;;;12.39;71.53;98153.50;5040833;28;20056;-76
2023/10/17 09:06:56;;;;;;;1.73;0.77;;;;;;;12.59;68.51;98169.47;5052830;28;20040;-77
2023/10/17 09:11:40;;;;;;;4.30;1.05;;;;;;;11.96;67.83;98159.41;5054028;28;20094;-76
2023/10/17 09:14:16;;;;;;;1.55;0.80;;;;;;;11.64;67.03;98168.94;5071327;28;20040;-75
2023/10/17 09:16:50;;;;;;;4.32;1.00;;;;;;;11.69;68.02;98164.66;5055304;28;20040;-78
2023/10/17 09:19:20;;;;;;;3.80;1.00;;;;;;;11.31;67.34;98152.84;5053050;28;20063;-76
2023/10/17 09:21:47;;;;;;;3.60;1.00;;;;;;;10.97;67.99;98160.03;5053517;28;20509;-74
2023/10/17 09:24:35;;;;;;;3.92;0.95;;;;;;;11.16;69.66;98160.13;5055202;28;20036;-74
2023/10/17 09:27:13;;;;;;;1.00;0.80;;;;;;;11.25;69.08;98155.47;5039325;28;20040;-69
2023/10/17 09:29:49;;;;;;;4.85;1.20;;;;;;;11.68;68.35;98160.38;5056105;28;20048;-74
2023/10/17 09:32:37;;;;;;;1.67;1.02;;;;;;;12.02;66.71;98164.72;5037342;28;20049;-74
2023/10/17 09:35:15;;;;;;;1.52;1.20;;;;;;;11.41;65.82;98160.44;5053762;28;20048;-74
2023/10/17 09:37:50;;;;;;;5.13;1.35;;;;;;;11.50;66.51;98167.25;5018057;28;20131;-76
2023/10/17 09:40:22;;;;;;;3.33;0.90;;;;;;;11.18;66.24;98157.28;5050479;28;20032;-73
2023/10/17 09:42:49;;;;;;;4.05;1.13;;;;;;;10.81;66.57;98163.03;5053608;28;20048;-72
2023/10/17 09:45:15;;;;;;;2.50;1.50;;;;;;;10.44;67.48;98158.88;5052735;28;20075;-71
2023/10/17 09:47:44;;;;;;;1.98;1.13;;;;;;;10.55;68.33;98162.84;5070437;28;20166;-74
2023/10/17 09:50:13;;;;;;;1.58;1.00;;;;;;;10.52;69.24;98164.03;5003873;28;20437;-73
2023/10/17 09:52:40;;;;;;;6.43;0.93;;;;;;;10.33;69.74;98180.66;5036341;28;20048;-74
2023/10/17 09:55:10;;;;;;;1.13;0.88;;;;;;;10.59;69.69;98156.13;5053520;28;20048;-75
2023/10/17 09:57:38;;;;;;;2.05;0.80;;;;;;;10.83;69.09;98168.94;5053558;28;20036;-75
2023/10/17 10:00:33;;;;;;;1.20;1.00;;;;;;;11.23;68.67;98170.78;5053612;28;20051;-74
2023/10/17 10:03:00;;;;;;;5.28;1.00;;;;;;;11.30;67.07;98171.66;5053169;28;20044;-75
2023/10/17 10:05:29;;;;;;;1.63;0.93;;;;;;;11.57;66.15;98170.72;5036258;28;20084;-75
2023/10/17 10:08:02;;;;;;;3.13;1.17;;;;;;;11.63;65.66;98167.28;5070755;28;20052;-75
2023/10/17 10:10:51;;;;;;;2.78;1.27;;;;;;;11.71;65.51;98181.25;5053134;28;20070;-74
2023/10/17 10:13:19;;;;;;;2.60;1.30;;;;;;;11.47;65.57;98172.97;5041830;28;20055;-74
2023/10/17 10:16:01;;;;;;;1.45;1.08;;;;;;;11.76;65.83;98175.31;5029036;28;20389;-79
2023/10/17 10:18:47;;;;;;;3.83;1.10;;;;;;;12.52;65.05;98166.78;5022371;28;20503;-74
2023/10/17 10:21:13;;;;;;;4.22;1.00;;;;;;;12.58;63.38;98170.47;5043571;28;20049;-72
2023/10/17 10:23:40;;;;;;;2.60;0.93;;;;;;;12.31;62.94;98163.53;5058859;28;20424;-73
2023/10/17 10:26:19;;;;;;;1.02;0.80;;;;;;;12.30;63.85;98161.88;4965224;28;20084;-77
2023/10/17 10:28:51;;;;;;;2.95;1.38;;;;;;;11.97;64.49;98145.06;4996661;28;20183;-76
2023/10/17 10:31:26;;;;;;;3.55;1.05;;;;;;;11.87;66.26;98158.75;4997140;28;20099;-77
2023/10/17 10:34:00;;;;;;;2.85;1.23;;;;;;;13.33;67.65;98152.91;5011669;28;20045;-77
2023/10/17 10:36:27;;;;;;;1.27;0.90;;;;;;;14.81;62.93;98150.47;5035283;28;20053;-79
2023/10/17 10:38:54;;;;;;;3.20;1.20;;;;;;;15.38;60.12;98149.22;5015342;28;20314;-75
2023/10/17 10:41:22;;;;;;;2.83;1.00;;;;;;;15.39;58.32;98146.34;5045411;28;20046;-80
2023/10/17 10:43:49;;;;;;;1.23;0.90;;;;;;;14.69;56.98;98147.72;5029066;28;20072;-74
2023/10/17 10:46:15;;;;;;;1.73;1.05;;;;;;;14.04;57.31;98145.53;5057823;28;20044;-74
2023/10/17 10:48:53;;;;;;;3.30;1.10;;;;;;;13.48;57.51;98141.97;5054050;28;20052;-76
2023/10/17 10:51:26;;;;;;;4.00;0.90;;;;;;;13.12;59.18;98139.88;5033819;28;20432;-75
2023/10/17 10:53:57;;;;;;;5.45;1.33;;;;;;;12.73;60.60;98137.25;5017365;28;20041;-73
2023/10/17 10:56:27;;;;;;;1.85;1.10;;;;;;;12.25;61.85;98129.72;5027764;28;20036;-72
2023/10/17 10:58:57;;;;;;;4.90;1.40;;;;;;;11.59;63.52;98134.13;5025293;28;20049;-75
2023/10/17 11:01:25;;;;;;;2.17;1.23;;;;;;;11.43;65.71;98131.81;5043579;28;20178;-73
2023/10/17 11:03:52;;;;;;;5.88;1.17;;;;;;;11.46;67.30;98134.91;5041118;28;20060;-73
2023/10/17 11:06:25;;;;;;;4.20;1.20;;;;;;;11.05;67.18;98143.94;4996139;28;20098;-74
2023/10/17 11:08:51;;;;;;;1.83;1.10;;;;;;;10.38;69.06;98137.59;5024978;28;20378;-73
2023/10/17 11:11:19;;;;;;;2.35;1.52;;;;;;;10.71;70.05;98142.13;5053413;28;20070;-74
2023/10/17 11:13:56;;;;;;;5.53;1.33;;;;;;;11.04;70.33;98124.50;5013592;28;20040;-73
2023/10/17 11:16:25;;;;;;;4.57;1.27;;;;;;;11.05;70.03;98133.31;5054653;28;20040;-75
2023/10/17 11:18:51;;;;;;;6.80;1.52;;;;;;;10.54;70.04;98146.09;5053952;28;20396;-74
2023/10/17 11:21:20;;;;;;;1.63;1.20;;;;;;;10.27;70.76;98154.06;5055008;28;20044;-74
2023/10/17 11:23:51;;;;;;;3.97;1.15;;;;;;;10.41;71.68;98140.69;5054602;28;20044;-74
2023/10/17 11:26:21;;;;;;;1.40;1.00;;;;;;;10.40;71.57;98131.09;5072977;28;20135;-76
2023/10/17 11:28:51;;;;;;;6.40;1.33;;;;;;;10.61;71.37;98140.84;5023727;28;20539;-79
2023/10/17 11:31:22;;;;;;;2.20;0.82;;;;;;;10.58;71.31;98144.69;5015495;28;20036;-77
2023/10/17 11:33:59;;;;;;;5.22;1.00;;;;;;;10.56;72.07;98136.09;5011338;28;20190;-75
2023/10/17 11:36:35;;;;;;;3.20;0.90;;;;;;;10.52;71.36;98134.03;4986137;28;20122;-75
2023/10/17 11:39:07;;;;;;;3.05;1.30;;;;;;;10.50;71.87;98144.03;5007539;28;20375;-77
2023/10/17 11:41:53;;;;;;;1.85;0.90;;;;;;;10.19;73.87;98129.28;5023486;28;20045;-77
2023/10/17 11:44:31;;;;;;;1.50;1.02;;;;;;;10.06;73.99;98126.50;4998563;28;20103;-76
2023/10/17 11:47:03;;;;;;;4.30;1.17;;;;;;;10.26;74.65;98129.34;4988363;28;20049;-76
2023/10/17 11:49:31;;;;;;;4.78;1.08;;;;;;;9.60;75.94;98135.03;5034735;28;20494;-75
2023/10/17 11:52:10;;;;;;;3.70;1.55;;;;;;;9.91;77.84;98122.28;5002568;28;20482;-80
2023/10/17 11:55:00;;;;;;;4.15;1.30;;;;;;;9.83;78.49;98125.06;4999040;28;20052;-75
2023/10/17 11:57:29;;;;;;;3.13;1.10;;;;;;;9.79;78.90;98127.25;4983646;28;20041;-76
2023/10/17 12:00:19;;;;;;;7.05;1.55;;;;;;;10.09;79.47;98128.81;5018363;28;20147;-75
2023/10/17 12:02:47;;;;;;;3.47;1.27;;;;;;;9.96;79.09;98128.66;5013973;28;20048;-74
2023/10/17 12:05:22;;;;;;;5.03;1.10;;;;;;;9.91;79.63;98136.38;5003519;28;20055;-77
2023/10/17 12:07:58;;;;;;;6.25;1.50;;;;;;;10.10;80.19;98140.25;5025881;28;20055;-75
2023/10/17 12:10:24;;;;;;;5.75;1.33;;;;;;;9.96;79.70;98139.25;5008015;28;20037;-74
2023/10/17 12:13:08;;;;;;;2.47;1.08;;;;;;;9.86;80.71;98133.47;5049384;28;20144;-77
2023/10/17 12:15:34;;;;;;;2.22;1.30;;;;;;;9.85;81.70;98131.84;5016425;28;20045;-74
2023/10/17 12:18:00;;;;;;;7.63;1.30;;;;;;;9.76;83.08;98135.59;5018248;28;20041;-74
2023/10/17 12:20:27;;;;;;;1.73;1.17;;;;;;;9.39;84.32;98130.53;5051176;28;20203;-74
2023/10/17 12:22:57;;;;;;;3.53;1.17;;;;;;;9.34;86.18;98134.75;5015141;28;20356;-75
2023/10/17 12:25:23;;;;;;;2.25;1.10;;;;;;;9.42;86.64;98132.81;4993515;28;20069;-74
2023/10/17 12:27:52;;;;;;;6.57;1.60;;;;;;;9.48;88.03;98137.38;5037489;28;20051;-72
2023/10/17 12:30:24;;;;;;;2.20;1.35;;;;;;;9.59;88.35;98142.19;5029488;28;20044;-78
2023/10/17 12:32:50;;;;;;;3.38;1.67;;;;;;;9.34;87.88;98137.38;4983549;28;20044;-75
2023/10/17 12:35:16;;;;;;;2.63;1.20;;;;;;;9.22;89.75;98129.13;5046209;28;20068;-71
2023/10/17 12:37:45;;;;;;;2.13;1.30;;;;;;;9.00;90.47;98127.41;4982090;28;20151;-72
2023/10/17 12:40:22;;;;;;;5.70;1.30;;;;;;;9.18;91.49;98138.44;5043302;28;20155;-73
2023/10/17 12:42:50;;;;;;;1.20;1.10;;;;;;;9.35;92.23;98129.25;5030597;28;20538;-74
2023/10/17 12:45:17;;;;;;;2.03;1.20;;;;;;;9.39;91.97;98138.50;5029781;28;20428;-75
2023/10/17 12:47:44;;;;;;;1.88;1.10;;;;;;;9.13;93.32;98135.53;5028663;28;20111;-72
2023/10/17 12:50:15;;;;;;;2.38;1.17;;;;;;;9.16;92.93;98135.16;5008958;28;20140;-74
2023/10/17 12:52:42;;;;;;;1.88;1.27;;;;;;;9.26;94.03;98137.50;5031616;28;20037;-74
2023/10/17 12:55:09;;;;;;;2.05;1.02;;;;;;;9.13;93.76;98134.69;5013908;28;20109;-74
2023/10/17 12:57:38;;;;;;;2.60;1.17;;;;;;;8.92;95.13;98137.28;5014551;28;20041;-72
2023/10/17 13:00:11;;;;;;;5.50;1.60;;;;;;;9.05;96.84;98127.69;5027186;28;20045;-73
2023/10/17 13:02:41;;;;;;;3.22;1.55;;;;;;;9.03;97.02;98144.75;5002253;28;20069;-73
2023/10/17 13:05:11;;;;;;;6.85;1.30;;;;;;;8.92;97.33;98159.28;5009061;28;20044;-73
2023/10/17 13:07:38;;;;;;;5.35;1.70;;;;;;;8.75;98.51;98147.22;5018061;28;20464;-73
2023/10/17 13:10:06;;;;;;;2.08;1.48;;;;;;;8.59;99.97;98150.06;5044206;28;20044;-74
2023/10/17 13:12:32;;;;;;;2.65;1.30;;;;;;;8.71;100.00;98159.19;5033047;28;20045;-75
2023/10/17 13:14:59;;;;;;;3.55;1.30;;;;;;;8.41;100.00;98150.41;4997735;28;20037;-74
2023/10/17 13:17:25;;;;;;;3.28;1.60;;;;;;;8.55;100.00;98156.72;4997878;28;20037;-73
2023/10/17 13:19:52;;;;;;;4.40;1.45;;;;;;;8.53;100.00;98148.94;5030166;28;20048;-74
2023/10/17 13:22:20;;;;;;;2.97;1.50;;;;;;;8.51;100.00;98158.09;5036199;28;20044;-73
2023/10/17 13:24:48;;;;;;;4.90;1.77;;;;;;;8.43;100.00;98152.88;5014278;28;20041;-75
2023/10/17 13:27:15;;;;;;;5.10;1.52;;;;;;;8.37;100.00;98165.00;5033793;28;20044;-72
2023/10/17 13:29:42;;;;;;;2.88;1.40;;;;;;;8.39;100.00;98151.59;5007948;28;20045;-74
2023/10/17 13:32:09;;;;;;;4.78;1.60;;;;;;;8.42;100.00;98157.34;4996192;28;20050;-70
2023/10/17 13:34:39;;;;;;;2.30;1.38;;;;;;;8.49;100.00;98162.72;4999313;28;20132;-78
2023/10/17 13:37:05;;;;;;;2.28;1.10;;;;;;;8.39;100.00;98162.19;4980098;28;20061;-70
2023/10/17 13:39:32;;;;;;;1.58;1.10;;;;;;;8.32;100.00;98164.72;4983123;28;20084;-75
2023/10/17 13:41:58;;;;;;;1.48;1.30;;;;;;;8.33;100.00;98158.41;4968622;28;20989;-74
2023/10/17 13:44:25;;;;;;;4.70;1.35;;;;;;;8.37;100.00;98165.00;5000381;28;20125;-76
2023/10/17 13:46:51;;;;;;;2.85;1.50;;;;;;;8.33;100.00;98165.53;4982384;28;20503;-73
2023/10/17 13:49:18;;;;;;;5.43;1.90;;;;;;;8.43;100.00;98153.69;5026965;28;20057;-74
2023/10/17 13:51:46;;;;;;;3.70;2.13;;;;;;;8.28;100.00;98162.59;5010080;28;20046;-74
2023/10/17 13:54:13;;;;;;;4.13;1.58;;;;;;;8.33;100.00;98160.25;4994945;28;20041;-72
2023/10/17 13:56:41;;;;;;;4.03;1.52;;;;;;;8.39;100.00;98162.19;4981797;28;20056;-72
2023/10/17 13:59:09;;;;;;;1.95;1.23;;;;;;;8.42;100.00;98172.41;4993036;28;20048;-73
2023/10/17 14:01:41;;;;;;;3.85;1.45;;;;;;;8.56;100.00;98175.03;5041571;28;20048;-74
2023/10/17 14:04:09;;;;;;;1.75;1.55;;;;;;;8.39;100.00;98189.44;5046499;28;20111;-73
2023/10/17 14:06:42;;;;;;;4.05;1.27;;;;;;;8.38;100.00;98176.38;5014100;28;20089;-75
2023/10/17 14:09:23;;;;;;;2.55;1.45;;;;;;;8.45;100.00;98177.31;5007865;28;20076;-75